Schedule Details


Flight Number: CTN413
Departure: Frankfurt/main (EDDF) at 12:05
Arrival: Kastela (LDSP) at 13:45
Route: NOMBO UZ738 MUN UM867 VAROB DCT GIMIX DCT SABAD L862 GISER UL862 PALEZ L862 OKLAX

Weather Information
EDDF 172320Z 02003KT CAVOK 22/17 Q1013 NOSIG
LDSP 172300Z AUTO 26001KT CAVOK 21/15 Q1017
Schedule Frequency

Route Map